createdAt,value
2019-05-14T00:01:05.766Z,68.57
2019-05-14T00:06:12.965Z,69.62
2019-05-14T00:08:41.988Z,70.43
2019-05-14T00:11:12.805Z,69.54
2019-05-14T00:13:41.649Z,69.32
2019-05-14T00:16:11.855Z,70.49
2019-05-14T00:18:41.969Z,71.67
2019-05-14T00:21:12.214Z,70.17
2019-05-14T00:23:42.177Z,71.09
2019-05-14T00:26:12.173Z,70.99
2019-05-14T00:28:42.388Z,70.99
2019-05-14T00:31:12.103Z,69.79
2019-05-14T00:36:24.836Z,71.73
2019-05-14T00:38:53.890Z,70.02
2019-05-14T00:41:23.195Z,72.05
2019-05-14T00:43:51.984Z,70.47
2019-05-14T00:46:21.222Z,71.88
2019-05-14T00:51:31.820Z,72.19
2019-05-14T00:54:01.711Z,72.13
2019-05-14T00:56:32.100Z,73.07
2019-05-14T00:59:01.489Z,73.64
2019-05-14T01:01:31.832Z,72.69
2019-05-14T01:04:01.281Z,72.88
2019-05-14T01:06:31.435Z,74.50
2019-05-14T01:11:44.970Z,72.13
2019-05-14T01:14:13.718Z,73.08
2019-05-14T01:16:42.623Z,72.54
2019-05-14T01:19:12.388Z,72.07
2019-05-14T01:21:41.712Z,72.71
2019-05-14T01:26:48.989Z,73.71
2019-05-14T01:31:55.281Z,74.59
2019-05-14T01:34:23.954Z,75.74
2019-05-14T01:36:53.074Z,75.42
2019-05-14T01:39:21.913Z,75.91
2019-05-14T01:41:51.716Z,76.62
2019-05-14T01:44:21.347Z,75.61
2019-05-14T02:17:18.038Z,77.73
2019-05-14T02:19:47.124Z,74.99
2019-05-14T02:22:16.530Z,76.26
2019-05-14T02:24:45.213Z,76.04
2019-05-14T02:27:14.228Z,78.21
2019-05-14T02:32:22.649Z,79.46
2019-05-14T02:37:30.104Z,79.56
2019-05-14T02:39:59.855Z,79.04
2019-05-14T02:42:29.691Z,78.62
2019-05-14T02:47:39.322Z,81.73
2019-05-14T02:50:10.049Z,79.67
2019-05-14T02:55:15.245Z,77.69
2019-05-14T02:57:44.244Z,78.68
2019-05-14T03:00:13.984Z,78.82
2019-05-14T03:02:43.093Z,79.26
2019-05-14T03:07:52.531Z,82.03
2019-05-14T03:10:21.090Z,81.48
2019-05-14T03:12:50.407Z,80.59
2019-05-14T03:15:20.011Z,82.75
2019-05-14T03:20:29.004Z,83.29
2019-05-14T03:25:41.028Z,80.59
2019-05-14T03:28:09.663Z,80.44
2019-05-14T03:30:42.495Z,82.28
2019-05-14T03:33:13.240Z,81.17
2019-05-14T03:35:44.623Z,81.41
2019-05-14T03:38:10.923Z,82.26
2019-05-14T03:40:40.139Z,80.96
2019-05-14T03:43:09.135Z,81.29
2019-05-14T03:45:39.146Z,80.00
2019-05-14T03:48:10.387Z,80.04
2019-05-14T03:50:39.019Z,82.32
2019-05-14T03:53:10.055Z,83.37
2019-05-14T03:58:21.086Z,85.30
2019-05-14T04:00:52.759Z,84.06
2019-05-14T04:03:22.477Z,83.57
2019-05-14T04:05:52.191Z,83.54
2019-05-14T04:08:23.194Z,83.86
2019-05-14T04:13:42.411Z,84.21
2019-05-14T04:16:14.129Z,84.12
2019-05-14T04:18:50.510Z,82.62
2019-05-14T04:21:20.767Z,84.49
2019-05-14T04:26:30.294Z,83.31
2019-05-14T04:29:00.528Z,83.29
2019-05-14T04:31:32.197Z,82.36
2019-05-14T04:34:02.723Z,83.56
2019-05-14T04:36:31.566Z,83.44
2019-05-14T04:39:00.839Z,81.62
2019-05-14T04:41:30.088Z,84.21
2019-05-14T04:46:39.655Z,80.78
2019-05-14T04:49:09.598Z,83.26
2019-05-14T04:51:39.675Z,80.66
2019-05-14T04:56:50.641Z,82.29
2019-05-14T04:59:19.329Z,81.48
2019-05-14T05:04:29.886Z,83.04
2019-05-14T05:06:59.443Z,80.20
2019-05-14T05:12:08.857Z,80.51
2019-05-14T05:14:38.962Z,78.68
2019-05-14T05:17:09.221Z,79.19
2019-05-14T05:19:39.401Z,78.79
2019-05-14T05:22:08.098Z,79.10
2019-05-14T05:24:38.212Z,80.33
2019-05-14T05:27:09.323Z,82.47
2019-05-14T05:29:39.214Z,83.07
2019-05-14T05:32:08.700Z,80.95
2019-05-14T05:34:38.807Z,82.90
2019-05-14T05:37:08.802Z,81.64
2019-05-14T05:39:38.683Z,81.40
2019-05-14T05:42:09.167Z,80.48
2019-05-14T05:44:39.577Z,79.69
2019-05-14T05:47:09.174Z,79.47
2019-05-14T05:49:38.310Z,78.78
2019-05-14T05:54:49.066Z,77.78
2019-05-14T05:57:18.750Z,77.62
2019-05-14T05:59:48.485Z,77.77
2019-05-14T06:04:55.763Z,75.11
2019-05-14T06:07:24.742Z,74.41
2019-05-14T06:09:53.357Z,74.90
2019-05-14T06:12:22.370Z,74.70
2019-05-14T06:17:29.022Z,74.11
2019-05-14T06:22:38.298Z,72.86
2019-05-14T06:25:10.571Z,71.16
2019-05-14T06:27:38.096Z,72.10
2019-05-14T06:32:44.600Z,71.20
2019-05-14T06:35:13.304Z,71.35
2019-05-14T06:37:41.902Z,70.33
2019-05-14T06:40:10.867Z,70.78
2019-05-14T06:42:39.726Z,68.21
2019-05-14T06:47:50.188Z,65.47
2019-05-14T06:50:19.201Z,65.37
2019-05-14T06:55:28.401Z,65.38
2019-05-14T06:57:58.508Z,64.21
2019-05-14T07:00:28.664Z,63.70
2019-05-14T07:02:58.392Z,62.96
2019-05-14T07:05:28.104Z,62.95
2019-05-14T07:07:59.747Z,62.60
2019-05-14T07:10:28.773Z,62.93
2019-05-14T07:12:59.256Z,62.89
2019-05-14T07:15:29.004Z,60.87
2019-05-14T07:17:58.523Z,60.91
2019-05-14T07:23:08.208Z,57.41
2019-05-14T07:28:19.373Z,54.51
2019-05-14T07:30:48.494Z,55.25
2019-05-14T07:33:18.353Z,55.43
2019-05-14T07:35:48.798Z,54.61
2019-05-14T07:40:58.528Z,55.92
2019-05-14T07:46:08.281Z,53.58
2019-05-14T07:48:38.977Z,52.84
2019-05-14T07:51:08.892Z,53.34
2019-05-14T07:53:42.083Z,54.34
2019-05-14T07:58:45.782Z,53.58
2019-05-14T08:01:14.393Z,52.73
2019-05-14T08:06:20.959Z,51.34
2019-05-14T08:08:49.610Z,50.94
2019-05-14T08:13:58.491Z,49.71
2019-05-14T08:16:28.869Z,49.20
2019-05-14T08:18:59.930Z,49.44
2019-05-14T08:24:08.974Z,48.00
2019-05-14T08:29:17.946Z,46.01
2019-05-14T08:31:48.631Z,45.17
2019-05-14T08:36:58.844Z,42.94
2019-05-14T08:39:30.507Z,44.36
2019-05-14T08:42:03.872Z,45.33
2019-05-14T08:44:30.122Z,44.90
2019-05-14T08:47:00.785Z,45.72
2019-05-14T08:49:39.228Z,45.10
2019-05-14T08:52:00.615Z,43.47
2019-05-14T08:54:29.610Z,43.11
2019-05-14T08:56:58.534Z,43.95
2019-05-14T08:59:28.710Z,41.63
2019-05-14T09:02:05.938Z,41.63
2019-05-14T09:04:30.321Z,39.13
2019-05-14T09:06:58.541Z,39.13
2019-05-14T09:09:28.948Z,39.80
2019-05-14T09:11:59.932Z,38.82
2019-05-14T09:14:28.712Z,37.58
2019-05-14T09:19:39.228Z,38.31
2019-05-14T09:22:09.595Z,38.50
2019-05-14T09:24:38.782Z,38.62
2019-05-14T09:27:08.565Z,38.91
2019-05-14T09:29:39.441Z,38.82
2019-05-14T09:34:48.483Z,38.68
2019-05-14T09:37:19.289Z,37.58
2019-05-14T09:42:24.799Z,36.77
2019-05-14T09:44:53.419Z,35.94
2019-05-14T09:47:23.728Z,35.32
2019-05-14T09:52:29.958Z,35.02
2019-05-14T09:54:58.696Z,34.93
2019-05-14T09:57:28.162Z,33.91
2019-05-14T09:59:58.570Z,33.91
2019-05-14T10:05:09.030Z,34.04
2019-05-14T10:07:39.107Z,32.79
2019-05-14T10:10:08.264Z,34.40
2019-05-14T10:12:48.208Z,35.34
2019-05-14T10:17:49.980Z,35.25
2019-05-14T10:20:36.014Z,35.81
2019-05-14T10:22:49.919Z,36.03
2019-05-14T10:25:19.203Z,35.38
2019-05-14T10:27:48.549Z,37.96
2019-05-14T10:30:18.186Z,33.96
2019-05-14T10:32:49.224Z,34.70
2019-05-14T10:35:19.220Z,34.52
2019-05-14T10:40:29.088Z,34.40
2019-05-14T10:42:57.310Z,34.67
2019-05-14T10:45:28.750Z,33.94
2019-05-14T10:50:52.243Z,31.99
2019-05-14T10:53:09.077Z,30.94
2019-05-14T10:55:38.699Z,31.55
2019-05-14T10:58:08.842Z,32.10
2019-05-14T11:00:41.513Z,31.11
2019-05-14T11:03:08.532Z,31.52
2019-05-14T11:05:41.304Z,31.71
2019-05-14T11:08:11.886Z,33.06
2019-05-14T11:10:42.190Z,31.95
2019-05-14T11:13:11.219Z,31.92
2019-05-14T11:15:40.635Z,31.07
2019-05-14T11:20:51.565Z,31.06
2019-05-14T11:23:20.087Z,28.49
2019-05-14T11:28:28.699Z,30.78
2019-05-14T11:30:57.279Z,30.71
2019-05-14T11:36:09.030Z,26.83
2019-05-14T11:38:37.689Z,25.61
2019-05-14T11:43:44.593Z,28.03
2019-05-14T11:46:13.657Z,28.06
2019-05-14T11:48:43.054Z,29.99
2019-05-14T11:51:12.062Z,29.12
2019-05-14T11:53:40.820Z,28.85
2019-05-14T11:56:09.473Z,28.21
2019-05-14T12:01:18.941Z,24.00
2019-05-14T12:03:49.955Z,26.25
2019-05-14T12:06:18.823Z,27.41
2019-05-14T12:08:48.313Z,25.85
2019-05-14T12:11:19.298Z,26.65
2019-05-14T12:13:48.707Z,26.31
2019-05-14T12:16:17.774Z,26.83
2019-05-14T12:18:48.436Z,27.32
2019-05-14T12:21:17.006Z,26.88
2019-05-14T12:23:46.600Z,28.88
2019-05-14T12:26:18.898Z,28.32
2019-05-14T12:28:49.184Z,28.47
2019-05-14T12:33:58.219Z,28.51
2019-05-14T12:39:09.556Z,27.00
2019-05-14T12:44:16.097Z,26.13
2019-05-14T12:46:45.856Z,26.05
2019-05-14T12:49:14.961Z,27.07
2019-05-14T12:51:44.023Z,26.73
2019-05-14T12:54:13.408Z,26.26
2019-05-14T12:59:21.411Z,26.45
2019-05-14T13:01:50.565Z,26.44
2019-05-14T13:04:20.088Z,27.35
2019-05-14T13:06:48.966Z,27.98
2019-05-14T13:09:21.368Z,29.05
2019-05-14T13:11:48.132Z,28.83
2019-05-14T13:14:16.926Z,26.94
2019-05-14T13:19:25.438Z,26.79
2019-05-14T13:22:08.688Z,27.33
2019-05-14T13:24:24.572Z,27.22
2019-05-14T13:26:53.277Z,27.16
2019-05-14T13:29:22.348Z,26.46
2019-05-14T13:34:28.986Z,25.89
2019-05-14T13:36:59.639Z,25.33
2019-05-14T13:39:28.441Z,26.24
2019-05-14T13:41:59.839Z,26.96
2019-05-14T13:44:29.188Z,26.16
2019-05-14T13:46:59.623Z,25.93
2019-05-14T13:49:29.583Z,25.88
2019-05-14T13:54:39.739Z,24.78
2019-05-14T13:57:11.935Z,25.53
2019-05-14T13:59:43.744Z,25.88
2019-05-14T14:04:48.323Z,28.08
2019-05-14T14:07:18.963Z,28.49
2019-05-14T14:09:49.663Z,27.93
2019-05-14T14:12:18.065Z,29.10
2019-05-14T14:14:49.291Z,28.33
2019-05-14T14:19:54.885Z,27.44
2019-05-14T14:25:03.783Z,26.76
2019-05-14T14:27:32.561Z,27.39
2019-05-14T14:30:01.176Z,25.48
2019-05-14T14:32:30.346Z,27.54
2019-05-14T14:34:59.172Z,27.70
2019-05-14T14:37:28.684Z,28.07
2019-05-14T14:39:59.295Z,28.65
2019-05-14T14:45:08.624Z,28.49
2019-05-14T14:47:39.334Z,27.96
2019-05-14T14:50:08.933Z,27.56
2019-05-14T14:52:37.601Z,26.52
2019-05-14T14:55:06.410Z,27.82
2019-05-14T14:57:35.063Z,27.48
2019-05-14T15:00:04.715Z,27.81
2019-05-14T15:05:14.403Z,28.16
2019-05-14T15:07:41.948Z,29.14
2019-05-14T15:10:11.053Z,29.05
2019-05-14T15:12:40.374Z,28.31
2019-05-14T15:15:09.236Z,29.20
2019-05-14T15:17:39.250Z,29.17
2019-05-14T15:22:49.474Z,27.19
2019-05-14T15:25:18.569Z,27.53
2019-05-14T15:30:28.739Z,28.80
2019-05-14T15:32:59.791Z,29.10
2019-05-14T15:35:28.603Z,27.95
2019-05-14T15:37:58.980Z,29.38
2019-05-14T15:40:28.961Z,29.62
2019-05-14T15:42:59.002Z,29.58
2019-05-14T15:45:28.809Z,29.31
2019-05-14T15:48:02.981Z,27.32
2019-05-14T15:50:29.244Z,28.48
2019-05-14T15:52:58.371Z,27.56
2019-05-14T15:58:04.852Z,28.92
2019-05-14T16:00:33.783Z,29.31
2019-05-14T16:05:41.858Z,30.56
2019-05-14T16:08:10.832Z,30.19
2019-05-14T16:10:40.057Z,29.79
2019-05-14T16:13:09.214Z,29.78
2019-05-14T16:15:38.968Z,29.80
2019-05-14T16:18:15.432Z,29.39
2019-05-14T16:20:39.196Z,27.37
2019-05-14T16:23:10.786Z,28.04
2019-05-14T16:25:39.063Z,28.16
2019-05-14T16:30:49.710Z,27.92
2019-05-14T16:33:18.759Z,28.10
2019-05-14T16:35:48.524Z,29.76
2019-05-14T16:38:17.800Z,30.15
2019-05-14T16:40:48.732Z,29.94
2019-05-14T16:43:19.002Z,30.30
2019-05-14T16:45:49.155Z,30.65
2019-05-14T16:48:18.291Z,30.99
2019-05-14T16:50:48.885Z,30.06
2019-05-14T16:53:19.515Z,30.24
2019-05-14T16:55:48.988Z,29.92
2019-05-14T16:58:19.458Z,30.48
2019-05-14T17:00:48.256Z,30.80
2019-05-14T17:05:58.020Z,29.95
2019-05-14T17:08:28.487Z,29.31
2019-05-14T17:13:34.874Z,29.83
2019-05-14T17:16:03.876Z,29.83
2019-05-14T17:18:32.653Z,30.15
2019-05-14T17:21:01.704Z,30.37
2019-05-14T17:23:30.326Z,30.32
2019-05-14T17:28:40.585Z,30.67
2019-05-14T17:31:09.201Z,30.79
2019-05-14T17:33:40.469Z,30.35
2019-05-14T17:36:09.684Z,31.34
2019-05-14T17:38:39.180Z,30.31
2019-05-14T17:41:09.433Z,29.57
2019-05-14T17:46:18.361Z,30.68
2019-05-14T17:48:48.676Z,30.32
2019-05-14T17:51:18.108Z,30.62
2019-05-14T17:53:48.050Z,30.82
2019-05-14T17:56:19.153Z,30.14
2019-05-14T17:58:48.909Z,29.71
2019-05-14T18:03:58.495Z,30.52
2019-05-14T18:06:28.577Z,30.21
2019-05-14T18:08:58.757Z,30.70
2019-05-14T18:11:28.353Z,30.79
2019-05-14T18:13:59.004Z,31.67
2019-05-14T18:16:28.638Z,31.50
2019-05-14T18:18:58.290Z,31.56
2019-05-14T18:21:28.545Z,31.81
2019-05-14T18:23:58.577Z,32.27
2019-05-14T18:26:29.086Z,33.54
2019-05-14T18:28:58.158Z,32.60
2019-05-14T18:31:27.170Z,33.02
2019-05-14T18:33:58.594Z,34.01
2019-05-14T18:36:28.520Z,34.58
2019-05-14T18:38:58.589Z,35.32
2019-05-14T18:41:29.298Z,35.63
2019-05-14T18:43:58.829Z,34.77
2019-05-14T18:46:28.526Z,35.12
2019-05-14T18:48:59.231Z,35.58
2019-05-14T18:51:28.860Z,37.00
2019-05-14T18:53:58.409Z,37.71
2019-05-14T18:56:29.250Z,37.95
2019-05-14T19:01:39.509Z,37.65
2019-05-14T19:04:08.226Z,38.14
2019-05-14T19:06:38.945Z,38.93
2019-05-14T19:09:10.599Z,38.81
2019-05-14T19:14:18.728Z,39.63
2019-05-14T19:16:48.914Z,39.69
2019-05-14T19:19:20.474Z,40.06
2019-05-14T19:24:28.700Z,39.97
2019-05-14T19:26:59.512Z,40.03
2019-05-14T19:29:28.229Z,40.09
2019-05-14T19:31:57.386Z,40.27
2019-05-14T19:34:28.552Z,40.40
2019-05-14T19:36:56.793Z,40.39
2019-05-14T19:39:25.457Z,40.99
2019-05-14T19:41:54.226Z,40.73
2019-05-14T19:44:22.839Z,40.89
2019-05-14T19:46:52.090Z,40.70
2019-05-14T19:51:59.944Z,40.07
2019-05-14T19:54:29.341Z,39.46
2019-05-14T19:59:38.637Z,39.79
2019-05-14T20:02:09.508Z,39.70
2019-05-14T20:04:37.787Z,39.61
2019-05-14T20:07:08.793Z,40.19
2019-05-14T20:09:38.845Z,39.67
2019-05-14T20:12:07.770Z,40.50
2019-05-14T20:14:38.301Z,40.09
2019-05-14T20:17:08.967Z,39.97
2019-05-14T20:19:39.374Z,39.96
2019-05-14T20:22:08.170Z,40.52
2019-05-14T20:24:41.220Z,40.35
2019-05-14T20:27:11.917Z,40.77
2019-05-14T20:29:39.041Z,41.56
2019-05-14T20:34:53.884Z,41.93
2019-05-14T20:37:22.562Z,42.23
2019-05-14T20:39:51.483Z,42.69
2019-05-14T20:45:03.404Z,43.39
2019-05-14T20:47:32.622Z,43.54
2019-05-14T20:50:01.278Z,43.77
2019-05-14T20:52:30.266Z,44.44
2019-05-14T20:57:38.382Z,44.36
2019-05-14T21:00:07.898Z,45.23
2019-05-14T21:02:39.368Z,45.34
2019-05-14T21:05:13.417Z,45.72
2019-05-14T21:07:39.179Z,45.77
2019-05-14T21:10:08.045Z,46.42
2019-05-14T21:15:15.635Z,46.27
2019-05-14T21:17:44.404Z,46.69
2019-05-14T21:20:13.056Z,46.54
2019-05-14T21:25:20.685Z,47.34
2019-05-14T21:30:29.263Z,49.26
2019-05-14T21:33:00.118Z,48.30
2019-05-14T21:35:29.158Z,49.04
2019-05-14T21:37:59.371Z,50.06
2019-05-14T21:43:06.276Z,50.04
2019-05-14T21:45:34.980Z,50.59
2019-05-14T21:48:04.049Z,50.32
2019-05-14T21:50:32.864Z,51.00
2019-05-14T21:53:01.506Z,51.10
2019-05-14T21:58:09.029Z,50.49
2019-05-14T22:00:48.302Z,50.60
2019-05-14T22:06:05.244Z,51.68
2019-05-14T22:08:34.182Z,51.77
2019-05-14T22:11:03.165Z,50.59
2019-05-14T22:13:32.326Z,51.03
2019-05-14T22:16:00.951Z,51.91
2019-05-14T22:18:29.755Z,52.36
2019-05-14T22:20:58.823Z,52.53
2019-05-14T22:23:29.183Z,52.49
2019-05-14T22:25:58.780Z,51.34
2019-05-14T22:28:28.852Z,52.01
2019-05-14T22:30:58.732Z,51.38
2019-05-14T22:33:28.478Z,51.67
2019-05-14T22:35:58.090Z,51.98
2019-05-14T22:38:29.348Z,51.56
2019-05-14T22:40:59.195Z,52.49
2019-05-14T22:43:28.849Z,51.15
2019-05-14T22:45:59.111Z,51.21
2019-05-14T22:48:27.838Z,51.55
2019-05-14T22:50:59.119Z,51.74
2019-05-14T22:53:27.817Z,52.08
2019-05-14T22:55:58.619Z,51.70
2019-05-14T22:58:28.834Z,51.35
2019-05-14T23:01:13.636Z,51.93
2019-05-14T23:03:28.996Z,52.86
2019-05-14T23:05:58.233Z,53.66
2019-05-14T23:08:26.936Z,52.81
2019-05-14T23:10:55.788Z,54.05
2019-05-14T23:13:24.760Z,52.87
2019-05-14T23:15:53.372Z,51.95
2019-05-14T23:18:22.456Z,53.81
2019-05-14T23:20:51.173Z,53.97
2019-05-14T23:23:20.566Z,54.09
2019-05-14T23:25:49.514Z,53.91
2019-05-14T23:28:19.265Z,54.04
2019-05-14T23:30:48.445Z,53.27
2019-05-14T23:33:19.045Z,53.55
2019-05-14T23:35:48.351Z,54.04
2019-05-14T23:40:58.643Z,54.40
2019-05-14T23:43:28.693Z,54.17
2019-05-14T23:48:42.459Z,54.27
2019-05-14T23:51:11.098Z,54.63
2019-05-14T23:56:19.136Z,55.66
2019-05-14T23:58:57.750Z,56.30
